Time;durP1;ratioP1;P1;durP2;ratioP2;P2;SDS_P1;SDS_P2;PMS_P1;PMS_P2;Temp;Humidity;BMP_temperature;BMP_pressure;BME280_temperature;BME280_humidity;BME280_pressure;Samples;Min_cycle;Max_cycle;Signal;HPM_P1;HPM_P2
2021/01/11 00:01:21;;;;;;;36.83;18.50;;;;;;;-3.68;96.00;96658.81;5074889;28;20429;-89
2021/01/11 00:03:48;;;;;;;38.30;19.60;;;;;;;-3.65;96.07;96654.56;5074461;28;20540;-87
2021/01/11 00:06:14;;;;;;;36.20;18.87;;;;;;;-3.70;95.65;96655.88;5074275;28;20547;-87
2021/01/11 00:08:41;;;;;;;36.70;20.43;;;;;;;-3.72;96.44;96654.84;5074515;28;20522;-88
2021/01/11 00:11:07;;;;;;;40.47;20.60;;;;;;;-3.74;96.76;96655.28;5074805;28;20446;-88
2021/01/11 00:13:33;;;;;;;42.33;21.10;;;;;;;-3.73;96.47;96656.03;5074388;28;20467;-88
2021/01/11 00:16:00;;;;;;;39.67;19.63;;;;;;;-3.73;96.28;96666.56;5074397;28;20938;-88
2021/01/11 00:18:27;;;;;;;39.53;20.83;;;;;;;-3.80;95.79;96663.03;5074627;28;20545;-88
2021/01/11 00:20:53;;;;;;;46.17;23.97;;;;;;;-3.81;96.31;96656.28;5074817;28;20863;-88
2021/01/11 00:23:20;;;;;;;37.00;21.17;;;;;;;-3.73;96.64;96661.28;5075234;28;20501;-88
2021/01/11 00:25:47;;;;;;;38.20;20.57;;;;;;;-3.76;95.82;96657.63;5074357;28;20444;-88
2021/01/11 00:28:13;;;;;;;37.77;21.00;;;;;;;-3.78;96.20;96657.31;5074349;28;20787;-88
2021/01/11 00:30:40;;;;;;;34.13;19.87;;;;;;;-3.78;96.56;96649.41;5079726;28;20520;-87
2021/01/11 00:33:06;;;;;;;40.93;20.83;;;;;;;-3.86;96.50;96651.63;5076256;28;20441;-87
2021/01/11 00:35:33;;;;;;;36.50;17.73;;;;;;;-3.91;96.31;96648.81;5074845;28;20446;-88
2021/01/11 00:38:00;;;;;;;36.87;19.83;;;;;;;-3.94;96.92;96654.94;5074830;28;20532;-88
2021/01/11 00:40:26;;;;;;;39.60;21.17;;;;;;;-3.95;96.80;96645.59;5073699;28;20481;-88
2021/01/11 00:42:52;;;;;;;37.77;19.03;;;;;;;-3.97;97.16;96643.38;5073968;28;20521;-88
2021/01/11 00:45:19;;;;;;;38.20;19.43;;;;;;;-3.99;97.21;96639.72;5073908;28;20457;-87
2021/01/11 00:47:45;;;;;;;36.67;20.30;;;;;;;-3.95;96.94;96640.31;5074296;28;20860;-87
2021/01/11 00:50:12;;;;;;;34.47;18.60;;;;;;;-3.93;96.62;96641.34;5075413;28;20938;-87
2021/01/11 00:52:39;;;;;;;39.27;19.80;;;;;;;-3.94;96.70;96641.78;5076800;28;20430;-87
2021/01/11 00:55:07;;;;;;;49.33;19.17;;;;;;;-3.93;96.52;96637.97;5079254;28;20857;-87
2021/01/11 00:57:34;;;;;;;36.57;19.30;;;;;;;-3.89;96.48;96641.94;5078679;28;20449;-88
2021/01/11 01:00:00;;;;;;;37.07;19.10;;;;;;;-3.93;97.35;96640.63;5077859;28;20513;-88
2021/01/11 01:02:27;;;;;;;31.63;17.60;;;;;;;-3.91;96.48;96639.00;5077376;28;20437;-88
2021/01/11 01:04:53;;;;;;;35.40;18.90;;;;;;;-3.93;96.67;96645.88;5077376;28;20507;-87
2021/01/11 01:07:23;;;;;;;37.67;19.30;;;;;;;-3.91;96.49;96646.16;5077541;28;20428;-88
2021/01/11 01:09:50;;;;;;;41.63;21.70;;;;;;;-3.89;97.25;96647.22;5076808;28;20476;-88
2021/01/11 01:12:16;;;;;;;36.20;20.23;;;;;;;-3.79;96.57;96650.59;5077323;28;20464;-88
2021/01/11 01:14:43;;;;;;;39.37;21.93;;;;;;;-3.87;95.86;96652.78;5076896;28;20568;-88
2021/01/11 01:17:09;;;;;;;37.50;20.23;;;;;;;-3.88;96.27;96653.19;5077054;28;20406;-88
2021/01/11 01:19:35;;;;;;;42.40;19.97;;;;;;;-3.88;96.91;96650.56;5076996;28;20484;-88
2021/01/11 01:22:02;;;;;;;34.20;19.33;;;;;;;-3.91;96.12;96646.16;5077309;28;20445;-88
2021/01/11 01:24:28;;;;;;;34.67;18.77;;;;;;;-4.02;96.42;96645.88;5077585;28;20468;-87
2021/01/11 01:26:55;;;;;;;37.20;20.00;;;;;;;-4.07;96.75;96644.53;5077165;28;20437;-89
2021/01/11 01:29:22;;;;;;;35.43;19.90;;;;;;;-4.05;96.67;96646.75;5077157;28;20449;-88
2021/01/11 01:31:48;;;;;;;36.07;19.03;;;;;;;-4.02;96.29;96643.97;5076961;28;20414;-88
2021/01/11 01:34:14;;;;;;;32.57;18.30;;;;;;;-4.00;96.20;96643.53;5076712;28;20461;-88
2021/01/11 01:36:41;;;;;;;32.60;17.63;;;;;;;-3.96;95.63;96650.13;5077120;28;20790;-88
2021/01/11 01:39:07;;;;;;;35.37;17.33;;;;;;;-3.96;95.54;96654.66;5077258;28;20481;-88
2021/01/11 01:41:34;;;;;;;36.07;19.80;;;;;;;-3.97;95.49;96653.19;5077338;28;20441;-88
2021/01/11 01:44:01;;;;;;;37.43;20.40;;;;;;;-3.98;95.68;96647.19;5076320;28;20464;-88
2021/01/11 01:46:31;;;;;;;40.47;18.90;;;;;;;-3.98;95.84;96643.84;5076916;28;20452;-88
2021/01/11 01:48:58;;;;;;;30.10;18.47;;;;;;;-3.99;96.10;96650.25;5078094;28;20501;-87
2021/01/11 01:51:25;;;;;;;37.80;19.30;;;;;;;-4.01;96.29;96652.63;5077900;28;20922;-86
2021/01/11 01:53:51;;;;;;;33.30;17.77;;;;;;;-3.98;95.60;96649.81;5077669;28;20526;-88
2021/01/11 01:56:19;;;;;;;33.10;17.50;;;;;;;-4.00;95.18;96656.69;5077848;28;20440;-87
2021/01/11 01:58:47;;;;;;;38.17;18.80;;;;;;;-4.11;95.50;96653.75;5090381;28;20425;-88
2021/01/11 02:01:14;;;;;;;34.90;18.67;;;;;;;-4.20;95.31;96651.09;5100394;28;20426;-89
2021/01/11 02:03:41;;;;;;;35.07;16.80;;;;;;;-4.14;95.15;96657.25;5099867;28;20445;-88
2021/01/11 02:06:07;;;;;;;34.00;16.97;;;;;;;-4.13;94.83;96656.06;5100159;28;20509;-88
2021/01/11 02:08:39;;;;;;;29.27;14.10;;;;;;;-4.08;94.73;96652.88;5099423;28;20430;-88
2021/01/11 02:11:13;;;;;;;34.73;18.40;;;;;;;-4.09;95.04;96654.78;5099533;28;20422;-87
2021/01/11 02:14:06;;;;;;;33.63;15.77;;;;;;;-4.18;94.72;96654.75;5099532;28;20466;-87
2021/01/11 02:16:44;;;;;;;27.70;15.70;;;;;;;-4.21;95.38;96655.63;5095931;28;20454;-87
2021/01/11 02:19:38;;;;;;;26.73;14.87;;;;;;;-4.19;95.54;96644.63;5093224;28;20461;-87
2021/01/11 02:22:09;;;;;;;29.93;14.87;;;;;;;-4.19;95.74;96642.00;5087262;28;20545;-88
2021/01/11 02:25:06;;;;;;;30.30;16.13;;;;;;;-4.22;95.18;96630.44;5087009;28;20461;-87
2021/01/11 02:27:43;;;;;;;30.17;15.30;;;;;;;-4.23;95.02;96636.16;5083807;28;20434;-87
2021/01/11 02:30:35;;;;;;;23.37;14.37;;;;;;;-4.20;94.93;96643.19;5082257;28;20500;-87
2021/01/11 02:33:06;;;;;;;27.13;15.07;;;;;;;-4.13;94.99;96632.38;5074099;28;20485;-87
2021/01/11 02:35:57;;;;;;;33.20;15.70;;;;;;;-4.26;94.40;96637.75;5078169;28;20462;-88
2021/01/11 02:38:24;;;;;;;29.63;14.27;;;;;;;-4.33;94.50;96632.78;5077098;28;20520;-88
2021/01/11 02:40:51;;;;;;;27.20;14.13;;;;;;;-4.34;94.44;96636.56;5076039;28;20993;-88
2021/01/11 02:43:18;;;;;;;29.27;14.57;;;;;;;-4.28;94.64;96637.47;5078307;28;20459;-88
2021/01/11 02:45:45;;;;;;;32.40;15.07;;;;;;;-4.26;94.79;96629.84;5081715;28;20486;-88
2021/01/11 02:48:14;;;;;;;30.80;15.17;;;;;;;-4.26;94.78;96637.75;5082102;28;20990;-88
2021/01/11 02:50:53;;;;;;;32.00;15.23;;;;;;;-4.24;93.78;96630.16;5082218;28;20442;-87
2021/01/11 02:53:29;;;;;;;27.60;15.27;;;;;;;-4.29;93.95;96624.75;5084354;28;20421;-88
2021/01/11 02:55:57;;;;;;;28.43;15.13;;;;;;;-4.37;94.09;96627.63;5091102;28;20452;-87
2021/01/11 02:58:48;;;;;;;30.50;14.73;;;;;;;-4.47;94.36;96623.50;5088389;28;20445;-87
2021/01/11 03:01:18;;;;;;;33.13;15.40;;;;;;;-4.55;94.19;96619.69;5085658;28;20429;-88
2021/01/11 03:03:47;;;;;;;27.63;14.37;;;;;;;-4.50;94.57;96626.25;5098890;28;20449;-88
2021/01/11 03:06:14;;;;;;;25.97;13.80;;;;;;;-4.48;94.69;96621.31;5076643;28;20440;-88
2021/01/11 03:08:41;;;;;;;26.80;14.33;;;;;;;-4.43;94.63;96624.09;5075425;28;20433;-87
2021/01/11 03:11:07;;;;;;;36.60;17.83;;;;;;;-4.37;95.13;96629.53;5075052;28;20537;-87
2021/01/11 03:13:33;;;;;;;29.97;15.63;;;;;;;-4.33;94.93;96627.50;5075189;28;20506;-88
2021/01/11 03:16:00;;;;;;;29.83;16.30;;;;;;;-4.33;95.03;96632.78;5074692;28;20437;-88
2021/01/11 03:18:27;;;;;;;31.93;16.63;;;;;;;-4.42;95.24;96630.13;5075442;28;20872;-88
2021/01/11 03:20:53;;;;;;;31.00;16.80;;;;;;;-4.53;96.28;96624.50;5075498;28;20488;-88
2021/01/11 03:23:20;;;;;;;36.70;17.40;;;;;;;-4.59;96.27;96626.22;5075160;28;20452;-88
2021/01/11 03:25:46;;;;;;;32.80;16.13;;;;;;;-4.64;96.13;96619.66;5075371;28;20499;-88
2021/01/11 03:28:12;;;;;;;34.33;17.37;;;;;;;-4.69;95.99;96614.19;5075209;28;20441;-87
2021/01/11 03:30:39;;;;;;;37.03;18.37;;;;;;;-4.68;96.29;96619.03;5074544;28;20846;-87
2021/01/11 03:33:05;;;;;;;38.83;18.20;;;;;;;-4.65;96.05;96612.91;5075337;28;20450;-88
2021/01/11 03:35:33;;;;;;;30.40;17.13;;;;;;;-4.61;96.44;96612.78;5075012;28;20852;-87
2021/01/11 03:37:59;;;;;;;33.73;17.60;;;;;;;-4.61;97.08;96613.53;5075020;28;20528;-88
2021/01/11 03:40:25;;;;;;;34.33;17.23;;;;;;;-4.63;97.30;96620.38;5074874;28;20481;-88
2021/01/11 03:42:52;;;;;;;43.73;20.47;;;;;;;-4.65;97.36;96622.69;5074975;28;20801;-88
2021/01/11 03:45:18;;;;;;;33.90;17.97;;;;;;;-4.69;97.42;96619.47;5074902;28;20476;-87
2021/01/11 03:47:44;;;;;;;37.33;20.20;;;;;;;-4.71;97.77;96625.16;5074833;28;20930;-88
2021/01/11 03:50:13;;;;;;;31.63;17.40;;;;;;;-4.72;97.29;96626.31;5074365;28;20449;-87
2021/01/11 03:52:40;;;;;;;30.83;17.03;;;;;;;-4.61;97.68;96633.84;5073893;28;20437;-88
2021/01/11 03:55:08;;;;;;;32.93;18.80;;;;;;;-4.56;96.99;96620.09;5074313;28;20472;-88
2021/01/11 03:57:34;;;;;;;40.37;21.83;;;;;;;-4.57;96.97;96624.63;5074029;28;20938;-88
2021/01/11 04:00:00;;;;;;;42.00;19.43;;;;;;;-4.64;96.95;96611.75;5074950;28;20490;-88
2021/01/11 04:02:27;;;;;;;37.27;18.67;;;;;;;-4.69;96.45;96617.56;5074193;28;20505;-88
2021/01/11 04:04:53;;;;;;;37.63;19.10;;;;;;;-4.72;96.79;96621.06;5074121;28;20547;-88
2021/01/11 04:07:19;;;;;;;36.50;19.63;;;;;;;-4.70;96.92;96616.13;5074383;28;20444;-87
2021/01/11 04:09:47;;;;;;;48.17;21.20;;;;;;;-4.69;96.83;96611.56;5074459;28;20440;-88
2021/01/11 04:12:13;;;;;;;38.30;19.63;;;;;;;-4.73;96.46;96618.88;5074042;28;20438;-88
2021/01/11 04:14:39;;;;;;;37.17;19.50;;;;;;;-4.69;96.38;96617.56;5074395;28;20930;-87
2021/01/11 04:17:06;;;;;;;35.60;18.60;;;;;;;-4.63;96.22;96620.38;5074524;28;20788;-88
2021/01/11 04:19:32;;;;;;;40.37;20.10;;;;;;;-4.71;96.17;96614.66;5074119;28;20585;-88
2021/01/11 04:21:59;;;;;;;36.57;18.83;;;;;;;-4.77;95.95;96619.00;5074336;28;20429;-88
2021/01/11 04:24:25;;;;;;;38.60;20.40;;;;;;;-4.71;96.44;96625.16;5074362;28;20506;-88
2021/01/11 04:26:52;;;;;;;42.30;22.20;;;;;;;-4.73;96.63;96627.47;5075609;28;20437;-88
2021/01/11 04:29:19;;;;;;;41.63;20.57;;;;;;;-4.76;97.36;96632.91;5078322;28;20503;-87
2021/01/11 04:31:47;;;;;;;36.07;18.40;;;;;;;-4.77;97.40;96632.16;5077574;28;21068;-87
2021/01/11 04:34:14;;;;;;;42.57;19.93;;;;;;;-4.76;98.01;96636.25;5078005;28;20552;-87
2021/01/11 04:36:41;;;;;;;43.83;21.90;;;;;;;-4.75;97.95;96624.56;5078200;28;20525;-87
2021/01/11 04:39:08;;;;;;;43.10;20.80;;;;;;;-4.79;97.98;96636.41;5078166;28;20859;-88
2021/01/11 04:41:40;;;;;;;38.47;18.90;;;;;;;-4.79;97.93;96639.72;5078034;28;20437;-88
2021/01/11 04:44:10;;;;;;;40.20;20.37;;;;;;;-4.82;97.07;96637.25;5078135;28;20454;-87
2021/01/11 04:46:36;;;;;;;36.60;19.50;;;;;;;-4.81;97.33;96641.34;5078280;28;20443;-87
2021/01/11 04:49:04;;;;;;;40.33;20.83;;;;;;;-4.88;97.11;96621.28;5078458;28;20441;-87
2021/01/11 04:51:32;;;;;;;42.23;20.67;;;;;;;-4.78;97.38;96633.31;5078654;28;20459;-88
2021/01/11 04:53:59;;;;;;;40.10;19.17;;;;;;;-4.72;96.93;96641.38;5078188;28;20465;-88
2021/01/11 04:56:27;;;;;;;36.57;18.30;;;;;;;-4.73;96.92;96626.78;5078187;28;20490;-88
2021/01/11 04:58:55;;;;;;;37.90;19.50;;;;;;;-4.75;96.43;96635.09;5078648;28;20512;-87
2021/01/11 05:01:24;;;;;;;44.93;20.50;;;;;;;-4.77;96.74;96642.69;5078393;28;20467;-87
2021/01/11 05:03:51;;;;;;;45.17;20.67;;;;;;;-4.83;97.52;96633.88;5078092;28;20529;-88
2021/01/11 05:06:19;;;;;;;42.77;21.07;;;;;;;-4.85;97.79;96633.56;5078062;28;20449;-87
2021/01/11 05:08:46;;;;;;;38.13;18.70;;;;;;;-4.83;97.88;96623.38;5078550;28;20437;-88
2021/01/11 05:11:12;;;;;;;40.00;19.47;;;;;;;-4.90;97.10;96629.63;5077868;28;20926;-87
2021/01/11 05:13:39;;;;;;;39.70;19.53;;;;;;;-4.76;97.30;96627.63;5079208;28;20445;-87
2021/01/11 05:16:12;;;;;;;41.83;18.60;;;;;;;-4.71;97.39;96619.91;5079785;28;20434;-88
2021/01/11 05:18:40;;;;;;;38.03;18.30;;;;;;;-4.76;97.06;96620.47;5077724;28;20813;-87
2021/01/11 05:21:07;;;;;;;39.83;19.27;;;;;;;-4.76;97.04;96623.09;5077857;28;20869;-88
2021/01/11 05:23:38;;;;;;;43.10;18.60;;;;;;;-4.76;96.95;96617.81;5078704;28;20490;-88
2021/01/11 05:26:14;;;;;;;37.97;18.90;;;;;;;-4.77;97.05;96615.63;5078908;28;20987;-88
2021/01/11 05:28:42;;;;;;;39.60;19.63;;;;;;;-4.76;96.69;96622.38;5079188;28;20441;-90
2021/01/11 05:31:08;;;;;;;40.73;19.57;;;;;;;-4.76;97.22;96625.00;5080200;28;20430;-87
2021/01/11 05:33:34;;;;;;;43.60;18.83;;;;;;;-4.76;97.55;96627.63;5078066;28;20455;-87
2021/01/11 05:36:08;;;;;;;49.50;21.03;;;;;;;-4.73;97.11;96627.47;5077699;28;20448;-88
2021/01/11 05:38:35;;;;;;;40.77;22.60;;;;;;;-4.82;97.79;96622.19;5077466;28;20453;-88
2021/01/11 05:41:23;;;;;;;48.23;21.43;;;;;;;-4.78;97.79;96622.06;5077836;28;20486;-89
2021/01/11 05:44:10;;;;;;;37.40;19.70;;;;;;;-4.68;97.39;96634.09;5069975;28;20523;-88
2021/01/11 05:46:37;;;;;;;36.93;19.47;;;;;;;-4.78;96.13;96622.06;5077495;28;20440;-88
2021/01/11 05:49:05;;;;;;;37.77;20.70;;;;;;;-4.81;96.18;96631.56;5077833;28;20460;-86
2021/01/11 05:51:34;;;;;;;34.53;18.70;;;;;;;-4.89;95.78;96635.63;5077293;28;20886;-87
2021/01/11 05:54:01;;;;;;;38.73;19.30;;;;;;;-4.97;95.98;96629.88;5077552;28;20480;-87
2021/01/11 05:56:27;;;;;;;34.50;17.77;;;;;;;-5.03;95.66;96633.47;5077884;28;20461;-87
2021/01/11 05:59:07;;;;;;;51.30;23.17;;;;;;;-5.13;95.22;96640.56;5079088;28;20558;-88
2021/01/11 06:01:35;;;;;;;41.13;20.10;;;;;;;-5.18;95.35;96643.03;5093301;28;20418;-88
2021/01/11 06:04:01;;;;;;;37.93;18.10;;;;;;;-5.19;95.65;96631.03;5085801;28;20552;-87
2021/01/11 06:06:28;;;;;;;39.00;18.10;;;;;;;-5.27;96.06;96635.81;5077355;28;20532;-84
2021/01/11 06:08:55;;;;;;;42.30;18.60;;;;;;;-5.17;95.80;96642.63;5077656;28;20464;-86
2021/01/11 06:11:24;;;;;;;38.13;18.90;;;;;;;-5.17;96.11;96645.25;5077535;28;20938;-86
2021/01/11 06:13:51;;;;;;;35.43;18.50;;;;;;;-5.16;95.83;96633.53;5076864;28;20526;-85
2021/01/11 06:16:19;;;;;;;40.20;19.47;;;;;;;-5.19;95.94;96638.94;5076769;28;20930;-86
2021/01/11 06:18:47;;;;;;;37.70;18.17;;;;;;;-5.13;95.63;96631.94;5077525;28;20454;-86
2021/01/11 06:21:14;;;;;;;35.97;18.00;;;;;;;-5.10;95.78;96631.09;5077217;28;20496;-85
2021/01/11 06:23:41;;;;;;;38.10;18.90;;;;;;;-5.09;95.54;96629.94;5077616;28;20449;-86
2021/01/11 06:26:32;;;;;;;35.20;19.40;;;;;;;-5.10;95.45;96633.72;5078898;28;20461;-86
2021/01/11 06:28:59;;;;;;;44.33;19.30;;;;;;;-5.13;95.71;96631.94;5078814;28;20445;-87
2021/01/11 06:31:28;;;;;;;34.97;17.20;;;;;;;-5.11;95.32;96627.75;5077779;28;20450;-86
2021/01/11 06:33:55;;;;;;;39.40;18.73;;;;;;;-5.17;95.36;96628.72;5078617;28;20472;-86
2021/01/11 06:36:24;;;;;;;36.67;18.97;;;;;;;-5.17;95.29;96626.09;5085474;28;20789;-86
2021/01/11 06:38:52;;;;;;;37.93;17.97;;;;;;;-5.21;95.54;96625.47;5085485;28;20810;-86
2021/01/11 06:41:19;;;;;;;36.07;17.17;;;;;;;-5.23;95.54;96620.63;5078389;28;20512;-85
2021/01/11 06:43:48;;;;;;;35.23;17.83;;;;;;;-5.21;96.09;96617.59;5077917;28;20446;-87
2021/01/11 06:46:43;;;;;;;42.70;19.10;;;;;;;-5.20;95.70;96629.59;5078676;28;20454;-86
2021/01/11 06:49:22;;;;;;;32.73;17.93;;;;;;;-5.18;95.67;96629.88;5078001;28;20430;-86
2021/01/11 06:52:01;;;;;;;34.10;19.30;;;;;;;-5.17;95.75;96626.09;5076787;28;20430;-87
2021/01/11 06:54:39;;;;;;;39.17;17.27;;;;;;;-5.21;95.74;96634.13;5077600;28;20469;-86
2021/01/11 06:57:12;;;;;;;53.60;19.33;;;;;;;-5.22;95.24;96629.25;5077990;28;20510;-86
2021/01/11 06:59:40;;;;;;;37.63;18.17;;;;;;;-5.18;95.87;96633.25;5076786;28;21106;-86
2021/01/11 07:02:21;;;;;;;40.37;19.90;;;;;;;-5.24;95.36;96634.97;5076846;28;20788;-86
2021/01/11 07:04:48;;;;;;;42.17;19.10;;;;;;;-5.23;95.16;96630.44;5077292;28;20859;-86
2021/01/11 07:07:19;;;;;;;50.40;18.57;;;;;;;-5.22;95.36;96640.53;5078247;28;20517;-86
2021/01/11 07:09:54;;;;;;;37.30;17.57;;;;;;;-5.27;95.09;96642.97;5077872;28;20467;-85
2021/01/11 07:12:21;;;;;;;42.97;20.10;;;;;;;-5.25;95.35;96645.91;5077595;28;20443;-87
2021/01/11 07:15:15;;;;;;;36.43;19.23;;;;;;;-5.20;95.39;96640.81;5078138;28;20477;-87
2021/01/11 07:17:42;;;;;;;38.50;18.23;;;;;;;-5.21;94.56;96642.00;5073799;28;20945;-84
2021/01/11 07:20:13;;;;;;;40.90;18.30;;;;;;;-5.24;94.90;96645.47;5077579;28;20558;-85
2021/01/11 07:22:41;;;;;;;40.67;19.20;;;;;;;-5.12;94.72;96660.47;5077467;28;20414;-85
2021/01/11 07:25:15;;;;;;;37.20;17.27;;;;;;;-5.00;94.20;96653.66;5077959;28;20458;-85
2021/01/11 07:27:41;;;;;;;41.53;18.27;;;;;;;-4.46;95.20;96655.84;5077596;28;20834;-85
2021/01/11 07:30:09;;;;;;;45.67;17.50;;;;;;;-4.07;92.74;96647.16;5077090;28;20627;-84
2021/01/11 07:32:36;;;;;;;41.93;18.20;;;;;;;-3.82;90.69;96654.09;5076129;28;20972;-83
2021/01/11 07:35:03;;;;;;;35.27;18.27;;;;;;;-3.73;89.46;96654.13;5076219;28;20456;-85
2021/01/11 07:37:29;;;;;;;40.20;18.50;;;;;;;-3.63;87.73;96649.59;5076539;28;20436;-84
2021/01/11 07:39:56;;;;;;;35.40;16.83;;;;;;;-3.59;87.62;96658.81;5076364;28;20550;-84
2021/01/11 07:42:22;;;;;;;31.80;16.50;;;;;;;-3.61;87.41;96658.53;5077502;28;20453;-85
2021/01/11 07:44:49;;;;;;;34.70;17.33;;;;;;;-3.50;87.11;96668.63;5076815;28;20450;-84
2021/01/11 07:47:16;;;;;;;31.47;16.73;;;;;;;-3.58;87.06;96673.47;5077739;28;20528;-84
2021/01/11 07:49:49;;;;;;;31.63;14.50;;;;;;;-3.60;87.18;96670.50;5077443;28;20861;-84
2021/01/11 07:52:17;;;;;;;30.17;17.33;;;;;;;-3.66;86.57;96663.63;5075780;28;20501;-85
2021/01/11 07:54:44;;;;;;;33.43;19.00;;;;;;;-3.57;86.72;96663.66;5075624;28;20465;-85
2021/01/11 07:57:12;;;;;;;30.30;16.70;;;;;;;-3.63;85.91;96663.47;5075257;28;20549;-87
2021/01/11 07:59:39;;;;;;;31.20;17.13;;;;;;;-3.67;86.62;96667.44;5075794;28;20487;-85
2021/01/11 08:02:10;;;;;;;31.43;17.93;;;;;;;-3.77;87.89;96671.97;5078639;28;20448;-86
2021/01/11 08:04:37;;;;;;;35.27;17.90;;;;;;;-3.84;88.83;96672.97;5084735;28;20465;-85
2021/01/11 08:07:08;;;;;;;36.70;19.13;;;;;;;-3.84;87.80;96674.88;5081094;28;20814;-85
2021/01/11 08:09:35;;;;;;;35.63;18.50;;;;;;;-3.83;87.88;96687.63;5081777;28;20428;-87
2021/01/11 08:12:09;;;;;;;41.90;19.17;;;;;;;-3.86;87.87;96698.31;5081607;28;20429;-88
2021/01/11 08:14:52;;;;;;;35.03;17.80;;;;;;;-3.89;87.72;96707.09;5096564;28;20467;-91
2021/01/11 08:17:19;;;;;;;35.73;16.80;;;;;;;-3.92;88.49;96697.41;5102054;28;20488;-91
2021/01/11 08:19:50;;;;;;;42.00;18.60;;;;;;;-3.96;88.44;96694.91;5102007;28;20476;-89
2021/01/11 08:22:19;;;;;;;42.97;19.17;;;;;;;-3.94;88.21;96699.75;5101585;28;20449;-89
2021/01/11 08:24:49;;;;;;;34.07;17.67;;;;;;;-3.84;88.92;96706.50;5085438;28;20452;-89
2021/01/11 08:27:21;;;;;;;33.73;17.40;;;;;;;-3.86;88.25;96706.22;5101971;28;20475;-89
2021/01/11 08:29:48;;;;;;;39.87;17.80;;;;;;;-3.63;87.81;96703.03;5101989;28;20426;-88
2021/01/11 08:32:19;;;;;;;40.00;19.87;;;;;;;-3.67;87.87;96694.53;5099492;28;20434;-86
2021/01/11 08:34:46;;;;;;;40.63;19.27;;;;;;;-3.51;87.37;96685.63;5081164;28;20446;-85
2021/01/11 08:37:32;;;;;;;38.53;19.90;;;;;;;-3.51;87.26;96688.97;5086227;28;20796;-88
2021/01/11 08:40:00;;;;;;;39.50;19.93;;;;;;;-3.63;87.96;96691.78;5082223;28;20477;-87
2021/01/11 08:42:27;;;;;;;34.90;19.30;;;;;;;-3.42;87.99;96696.19;5083981;28;20445;-89
2021/01/11 08:44:54;;;;;;;41.13;20.97;;;;;;;-3.45;87.14;96692.53;5086986;28;20452;-87
2021/01/11 08:47:27;;;;;;;34.03;16.57;;;;;;;-3.50;87.46;96700.25;5097434;28;20425;-87
2021/01/11 08:49:58;;;;;;;33.07;18.00;;;;;;;-3.45;86.85;96697.78;5096620;28;20463;-88
2021/01/11 08:52:30;;;;;;;34.70;18.90;;;;;;;-3.42;87.10;96696.91;5096498;28;20461;-85
2021/01/11 08:55:03;;;;;;;37.63;19.50;;;;;;;-3.31;86.81;96685.91;5095133;28;20483;-83
2021/01/11 08:57:29;;;;;;;31.90;19.07;;;;;;;-3.22;86.55;96691.19;5089627;28;20445;-88
2021/01/11 08:59:56;;;;;;;35.00;19.90;;;;;;;-3.23;86.76;96686.38;5085867;28;20472;-89
2021/01/11 09:02:29;;;;;;;37.83;19.30;;;;;;;-3.21;86.29;96687.38;5089000;28;20501;-88
2021/01/11 09:04:56;;;;;;;32.37;16.10;;;;;;;-3.23;86.93;96694.28;5087413;28;20452;-88
2021/01/11 09:07:29;;;;;;;34.27;17.27;;;;;;;-3.16;86.15;96689.44;5098553;28;20440;-89
2021/01/11 09:09:56;;;;;;;28.30;17.30;;;;;;;-3.16;85.88;96686.78;5094163;28;20442;-89
2021/01/11 09:12:36;;;;;;;34.10;16.10;;;;;;;-3.15;86.40;96677.72;5089457;28;20460;-89
2021/01/11 09:15:11;;;;;;;34.30;16.93;;;;;;;-3.06;86.29;96674.31;5090190;28;20483;-90
2021/01/11 09:17:40;;;;;;;32.00;16.60;;;;;;;-3.05;85.15;96681.81;5082871;28;20429;-89
2021/01/11 09:20:08;;;;;;;34.47;17.33;;;;;;;-3.00;85.70;96693.66;5083462;28;20469;-89
2021/01/11 09:22:40;;;;;;;36.97;16.73;;;;;;;-3.01;85.99;96698.22;5082003;28;20522;-90
2021/01/11 09:25:12;;;;;;;37.43;20.40;;;;;;;-3.01;85.89;96703.50;5083257;28;20865;-88
2021/01/11 09:27:39;;;;;;;31.60;15.80;;;;;;;-2.86;85.99;96714.94;5083049;28;20406;-88
2021/01/11 09:30:09;;;;;;;40.47;19.20;;;;;;;-2.83;85.34;96713.31;5083683;28;20482;-88
2021/01/11 09:32:36;;;;;;;37.07;17.80;;;;;;;-2.76;85.42;96728.84;5082273;28;20429;-89
2021/01/11 09:35:04;;;;;;;45.23;17.33;;;;;;;-2.70;85.09;96735.00;5084635;28;20838;-89
2021/01/11 09:37:31;;;;;;;33.13;16.70;;;;;;;-2.72;84.44;96738.06;5085844;28;20446;-88
2021/01/11 09:39:58;;;;;;;37.00;17.30;;;;;;;-2.52;84.16;96739.50;5081836;28;20872;-86
2021/01/11 09:42:25;;;;;;;39.03;17.07;;;;;;;-2.47;83.86;96730.97;5081872;28;20433;-87
2021/01/11 09:44:51;;;;;;;28.60;15.20;;;;;;;-2.50;82.80;96726.56;5081542;28;20466;-87
2021/01/11 09:47:17;;;;;;;28.77;16.03;;;;;;;-2.44;82.79;96722.91;5082596;28;20490;-87
2021/01/11 09:49:44;;;;;;;28.60;15.17;;;;;;;-2.41;82.79;96716.00;5082808;28;20458;-88
2021/01/11 09:52:10;;;;;;;33.93;17.17;;;;;;;-2.40;81.73;96714.81;5083299;28;20464;-87
2021/01/11 09:54:37;;;;;;;30.13;15.10;;;;;;;-2.30;82.73;96703.78;5081563;28;20548;-86
2021/01/11 09:57:05;;;;;;;31.77;16.07;;;;;;;-2.15;82.97;96706.50;5083913;28;20924;-90
2021/01/11 09:59:33;;;;;;;38.40;16.23;;;;;;;-2.08;82.14;96710.75;5081976;28;20446;-87
2021/01/11 10:01:59;;;;;;;29.30;15.87;;;;;;;-2.02;82.20;96714.97;5082431;28;20476;-87
2021/01/11 10:04:26;;;;;;;32.43;16.47;;;;;;;-1.97;82.44;96721.59;5082444;28;20548;-87
2021/01/11 10:06:54;;;;;;;33.27;16.80;;;;;;;-2.08;82.33;96710.75;5082370;28;20958;-88
2021/01/11 10:09:22;;;;;;;34.70;17.23;;;;;;;-1.92;81.53;96718.31;5080906;28;20430;-88
2021/01/11 10:11:51;;;;;;;33.97;16.93;;;;;;;-1.95;81.83;96714.66;5082417;28;20453;-89
2021/01/11 10:14:21;;;;;;;29.80;16.03;;;;;;;-1.89;81.28;96715.50;5084275;28;20511;-90
2021/01/11 10:16:48;;;;;;;34.27;17.27;;;;;;;-1.81;80.76;96713.25;5082810;28;20434;-89
2021/01/11 10:19:16;;;;;;;25.03;14.03;;;;;;;-1.73;80.34;96714.41;5085030;28;20446;-90
2021/01/11 10:21:43;;;;;;;31.90;13.37;;;;;;;-1.74;79.47;96718.22;5081405;28;20970;-90
2021/01/11 10:24:11;;;;;;;28.53;15.27;;;;;;;-1.84;79.58;96714.16;5078096;28;20890;-88
2021/01/11 10:26:41;;;;;;;29.00;16.40;;;;;;;-1.88;79.84;96718.91;5081731;28;20475;-91
2021/01/11 10:29:07;;;;;;;35.63;16.50;;;;;;;-1.63;78.77;96713.19;5081607;28;20452;-89
2021/01/11 10:31:34;;;;;;;33.73;17.00;;;;;;;-1.66;78.35;96698.91;5081217;28;20426;-88
2021/01/11 10:34:01;;;;;;;34.40;17.17;;;;;;;-1.61;79.33;96705.50;5080096;28;20461;-90
2021/01/11 10:36:28;;;;;;;27.00;14.80;;;;;;;-1.58;78.48;96695.94;5081805;28;20437;-89
2021/01/11 10:38:54;;;;;;;29.83;14.47;;;;;;;-1.57;78.92;96690.22;5081667;28;20922;-88
2021/01/11 10:41:22;;;;;;;28.40;14.17;;;;;;;-1.51;78.59;96699.00;5081583;28;20501;-90
2021/01/11 10:43:58;;;;;;;30.00;16.00;;;;;;;-1.49;78.77;96693.97;5083362;28;20861;-88
2021/01/11 10:46:24;;;;;;;24.03;13.80;;;;;;;-1.53;79.20;96690.75;5081300;28;20425;-88
2021/01/11 10:48:53;;;;;;;27.83;14.83;;;;;;;-1.51;79.38;96693.69;5081259;28;20454;-88
2021/01/11 10:51:22;;;;;;;27.83;15.13;;;;;;;-1.31;78.56;96679.88;5086847;28;20449;-86
2021/01/11 10:53:49;;;;;;;29.97;15.90;;;;;;;-1.40;78.60;96675.38;5085718;28;20454;-87
2021/01/11 10:56:16;;;;;;;30.40;15.50;;;;;;;-1.31;78.57;96670.03;5086343;28;20441;-87
2021/01/11 10:58:42;;;;;;;28.30;15.23;;;;;;;-1.33;78.67;96667.09;5080577;28;20499;-88
2021/01/11 11:01:11;;;;;;;35.83;16.80;;;;;;;-1.30;79.01;96666.19;5079229;28;20504;-86
2021/01/11 11:03:37;;;;;;;32.07;16.90;;;;;;;-1.14;79.48;96657.84;5079772;28;20447;-85
2021/01/11 11:06:05;;;;;;;32.00;15.40;;;;;;;-1.01;78.27;96649.63;5084604;28;20449;-87
2021/01/11 11:08:31;;;;;;;25.43;13.67;;;;;;;-1.21;77.64;96655.53;5083822;28;20429;-88
2021/01/11 11:10:58;;;;;;;26.77;13.47;;;;;;;-1.13;77.58;96659.28;5095740;28;20479;-88
2021/01/11 11:13:26;;;;;;;26.60;14.63;;;;;;;-1.08;77.44;96650.72;5090497;28;20518;-88
2021/01/11 11:15:53;;;;;;;26.93;13.80;;;;;;;-1.13;77.28;96647.97;5082713;28;20451;-86
2021/01/11 11:18:19;;;;;;;25.63;14.47;;;;;;;-1.09;77.73;96649.25;5082019;28;20454;-88
2021/01/11 11:20:47;;;;;;;26.73;12.83;;;;;;;-1.09;76.52;96633.38;5094271;28;20488;-87
2021/01/11 11:23:16;;;;;;;21.30;11.90;;;;;;;-1.20;76.42;96641.13;5097760;28;20509;-88
2021/01/11 11:25:45;;;;;;;33.10;13.73;;;;;;;-1.20;76.75;96649.06;5097959;28;20463;-86